Kezdőlap
METAR-TAF:

METAR-TAF

Repülőterek :

Tak, Thaiföld

földrajzi szélesség: 16-53N, földrajzi hosszúság: 099-09E, magasság: 121 m

Jelenlegi meteorológiai megfigyelések

A jelentés 22 perccel ezelõtt készült, 03:00 UTC
Hőmérséklet 34°C
Páratartalom 53%
Légköri nyomás 1005 hPa
Látótávolság 10 km, vagy több
Kevés felhő 2600 lábon

METAR: VTPT 220300Z /////KT 9999 FEW026 34/23 Q1005 NOSIG

Idő: 10:22 (03:22 UTC)

Előrejelzés

A jelentés 4 órával és 22 perccel ezelõtt készült, 23:00 UTC
Az előrejelzés 22-én 00 óra UTC és 22-én 24 óra UTC között érvényes
Nyugat-délnyugati szél 5 kt
Látótávolság 10 km, vagy több
Szórványos felhőzet 2600 lábon
22-én 06 óra UTC és 22-én 12 óra UTC között ideiglenes
Délnyugati szél 15 kt széllökések: 25 kt
Látótávolság: 4000 m
Kevés felhő 1800 lábon, Cumulonimbus.
Szakadozott felhőzet 2600 lábon
zivatar, esõ,

TAF: VTPT 212300Z 2200/2224 25005KT 9999 SCT026 TEMPO 2206/2212 22015G25KT 4000 TSRA FEW018CB BKN026

Meteorológiai megfigyelések és előrejelzések több, mint 4000 repülőtéren (METAR és TAF jelentéseket).

A térképen piros és sárga pontok jelzik az elérhető meteorológiai állomásokat.

Mozgassa az egeret a pont fölött, hogy megjelenjen az állomás neve.

Azután kattintson az időjárási megfigyelések és előrejelzések megtekintéséhez.

A térkép megváltoztatása: kattintson a fekete keresztel jelölt zöld gombra ráközelítéshez, a vonallal jelölt zöld gombra távolításhoz, vagy a zöld nyilakra a szomszédos térképek eléréséhez.


METAR-TAF: